Sinclair, Minnesota
Current Conditions -  °F | °C
As of 11:55 AM on Friday 21 Nov 2014 (Local Time) from KFSE Reporting Station
Clear Clear  
Wind Chill: 11°   Ceiling: Unl
Heat Index: 27°   Visibility: 7mi
Dew Point: 19°   Wind: 25mph
Humidity: 74%   Direction: 190°S
Pressure: 29.78"   Gusts: 30mph
Location:  47.6306°N, 95.3701°W
Report Text: KFSE 211755Z AUTO 19022G26KT 7SM CLR M03/M07 A2978 RMK AO2
Loading
Personal Weather Stations






























Interactive Weather Map New forecast layout! Learn more

10-Day Weather Forecast

Advertisements
Track Severe Weather on mobile